weather.gov     
National Weather Service

Terminal Aerodrome Forecast
NWS Homepage
This page is being discontinued on March 12, 2014.
The same data is available at this site. Please update your bookmarks.
Thank you, and we apologize for the inconvenience.
Please send an email to SR-SRH.Webmaster@noaa.gov with any concerns.


Current Version
Previous Version:    01  02  03  04  05  06  07  08  09  10  11  12  13  14  15  16  17  18  19  20  21  22  23  24  25  26  27  28  29  30  
   31  32  33  34  35  36  37  38  39  40  41  42  43  44  45  
[Printable]
555
FTUS42 KGSP 261904 AAA
TAFAVL
TAF AMD
KAVL 261904Z 2619/2718 34007KT P6SM SCT025 BKN035
     FM270200 VRB03KT P6SM SCT030 BKN040
     FM270600 32005KT P6SM VCSH BKN020
     FM271400 33012KT P6SM BKN030
     FM271600 32014G24KT P6SM BKN040=


555
FTUS42 KGSP 261904 AAA
TAFAVL
TAF AMD
KAVL 261904Z 2619/2718 34007KT P6SM SCT025 BKN035
     FM270200 VRB03KT P6SM SCT030 BKN040
     FM270600 32005KT P6SM VCSH BKN020
     FM271400 33012KT P6SM BKN030
     FM271600 32014G24KT P6SM BKN040=




U.S. Dept. of Commerce
NOAA National Weather Service
1325 East West Highway
Silver Spring, MD 20910
E-mail: w-nws.webmaster@noaa.gov
Page last modified: May 16, 2007
NATIONAL WEATHER SERVICE: for Safety, for Work, for Fun - FOR LIFE